Terminal Aerodrome Forecast
Issued by NWS

Home | Current Version | Previous Version | Text Only | Print | Product List | Glossary On
Versions: 1 2 3 4 5 6 7 8 9 10 11 12 13 14 15 16 17 18 19 20 21 22 23 24 25 26 27 28
482
FTUS43 KPAH 262010 AAA
TAFCGI
TAF AMD
KCGI 262010Z 2620/2718 VRB03KT P6SM VCTS SCT035CB
      TEMPO 2620/2623 VRB10G20KT 2SM +TSRA OVC025CB
     FM262300 VRB03KT P6SM SCT050 BKN200
     FM270700 00000KT 2SM BR SCT009
     FM271400 VRB02KT P6SM SCT015=

USA.gov is the U.S. government's official web portal to all federal, state and local government web resources and services.